createdAt,value
2019-06-04T00:02:05.993Z,16.33
2019-06-04T00:04:31.829Z,15.15
2019-06-04T00:06:58.867Z,14.60
2019-06-04T00:09:25.916Z,15.77
2019-06-04T00:11:53.498Z,16.73
2019-06-04T00:14:20.121Z,15.63
2019-06-04T00:16:47.580Z,14.60
2019-06-04T00:19:14.624Z,16.80
2019-06-04T00:21:43.112Z,17.12
2019-06-04T00:24:10.153Z,15.90
2019-06-04T00:26:37.201Z,15.93
2019-06-04T00:29:04.277Z,16.75
2019-06-04T00:31:34.887Z,17.42
2019-06-04T00:33:58.454Z,18.33
2019-06-04T00:36:25.454Z,17.85
2019-06-04T00:38:53.123Z,17.60
2019-06-04T00:41:19.602Z,16.70
2019-06-04T00:43:46.649Z,16.40
2019-06-04T00:46:13.698Z,16.27
2019-06-04T00:48:40.750Z,17.45
2019-06-04T00:51:07.793Z,16.98
2019-06-04T00:53:35.973Z,18.90
2019-06-04T00:56:05.090Z,18.15
2019-06-04T00:58:30.166Z,18.05
2019-06-04T01:00:57.689Z,17.80
2019-06-04T01:03:24.242Z,17.30
2019-06-04T01:05:51.312Z,18.58
2019-06-04T01:08:21.849Z,19.12
2019-06-04T01:10:45.462Z,18.70
2019-06-04T01:13:12.459Z,20.17
2019-06-04T01:15:39.451Z,19.45
2019-06-04T01:18:06.745Z,19.35
2019-06-04T01:20:42.315Z,19.42
2019-06-04T01:23:09.664Z,18.75
2019-06-04T01:25:36.713Z,18.83
2019-06-04T01:28:03.766Z,19.45
2019-06-04T01:30:32.243Z,20.00
2019-06-04T01:33:00.459Z,20.23
2019-06-04T01:35:26.456Z,20.25
2019-06-04T01:37:53.492Z,19.40
2019-06-04T01:40:20.568Z,18.95
2019-06-04T01:42:47.595Z,20.33
2019-06-04T01:45:14.639Z,16.70
2019-06-04T01:47:41.686Z,17.55
2019-06-04T01:50:10.012Z,19.23
2019-06-04T01:52:35.989Z,17.77
2019-06-04T01:55:02.939Z,19.80
2019-06-04T01:57:29.983Z,20.00
2019-06-04T01:59:57.123Z,21.67
2019-06-04T02:02:33.665Z,21.42
2019-06-04T02:04:53.587Z,20.58
2019-06-04T02:07:20.641Z,22.35
2019-06-04T02:09:47.693Z,21.02
2019-06-04T02:12:17.936Z,21.20
2019-06-04T02:14:42.402Z,21.15
2019-06-04T02:17:09.602Z,21.70
2019-06-04T02:19:36.597Z,21.73
2019-06-04T02:22:03.645Z,22.35
2019-06-04T02:24:30.698Z,21.70
2019-06-04T02:26:57.639Z,21.52
2019-06-04T02:29:24.693Z,22.23
2019-06-04T02:31:51.736Z,19.85
2019-06-04T02:34:19.117Z,21.90
2019-06-04T02:36:46.391Z,22.10
2019-06-04T02:39:14.126Z,22.42
2019-06-04T02:41:40.546Z,22.33
2019-06-04T02:44:07.750Z,22.67
2019-06-04T02:46:34.750Z,21.00
2019-06-04T02:49:01.902Z,22.17
2019-06-04T02:51:29.912Z,23.75
2019-06-04T02:53:56.915Z,23.40
2019-06-04T02:56:23.969Z,22.85
2019-06-04T02:58:51.012Z,22.73
2019-06-04T03:01:18.561Z,25.08
2019-06-04T03:03:45.115Z,23.12
2019-06-04T03:06:13.526Z,22.35
2019-06-04T03:08:39.310Z,22.27
2019-06-04T03:11:06.357Z,21.95
2019-06-04T03:13:33.412Z,21.65
2019-06-04T03:16:00.455Z,22.45
2019-06-04T03:18:27.503Z,24.02
2019-06-04T03:20:54.577Z,24.63
2019-06-04T03:23:21.602Z,24.55
2019-06-04T03:25:48.650Z,24.40
2019-06-04T03:28:15.703Z,23.25
2019-06-04T03:30:42.748Z,22.55
2019-06-04T03:33:09.795Z,24.65
2019-06-04T03:35:36.852Z,23.65
2019-06-04T03:38:03.900Z,24.83
2019-06-04T03:40:30.947Z,23.70
2019-06-04T03:42:57.997Z,22.70
2019-06-04T03:45:25.041Z,25.62
2019-06-04T03:47:52.142Z,25.60
2019-06-04T03:50:20.771Z,25.90
2019-06-04T03:52:46.499Z,26.25
2019-06-04T03:55:14.689Z,24.63
2019-06-04T03:57:40.692Z,23.42
2019-06-04T04:00:07.856Z,24.17
2019-06-04T04:02:34.997Z,25.30
2019-06-04T04:05:02.048Z,23.38
2019-06-04T04:07:29.966Z,24.00
2019-06-04T04:09:57.062Z,25.77
2019-06-04T04:12:24.820Z,25.92
2019-06-04T04:14:51.107Z,24.92
2019-06-04T04:17:20.778Z,25.50
2019-06-04T04:19:47.025Z,24.25
2019-06-04T04:22:14.045Z,23.80
2019-06-04T04:24:43.164Z,23.52
2019-06-04T04:27:08.251Z,24.95
2019-06-04T04:29:35.296Z,25.30
2019-06-04T04:32:03.266Z,24.05
2019-06-04T04:34:36.027Z,23.20
2019-06-04T04:36:57.469Z,22.15
2019-06-04T04:39:25.705Z,21.73
2019-06-04T04:41:51.563Z,21.80
2019-06-04T04:44:18.628Z,20.35
2019-06-04T04:46:45.676Z,21.98
2019-06-04T04:49:12.707Z,21.40
2019-06-04T04:51:41.247Z,20.90
2019-06-04T04:54:08.237Z,20.45
2019-06-04T04:56:36.470Z,19.87
2019-06-04T04:59:02.458Z,20.73
2019-06-04T05:01:30.079Z,19.00
2019-06-04T05:03:56.535Z,21.05
2019-06-04T05:06:23.588Z,20.12
2019-06-04T05:08:50.632Z,18.52
2019-06-04T05:11:17.683Z,19.80
2019-06-04T05:13:44.674Z,19.45
2019-06-04T05:16:11.779Z,20.75
2019-06-04T05:18:38.827Z,19.42
2019-06-04T05:21:07.416Z,18.60
2019-06-04T05:23:34.473Z,18.92
2019-06-04T05:26:01.611Z,18.45
2019-06-04T05:28:29.804Z,18.40
2019-06-04T05:30:57.656Z,17.62
2019-06-04T05:33:25.850Z,18.15
2019-06-04T05:35:51.956Z,18.58
2019-06-04T05:38:19.108Z,17.25
2019-06-04T05:40:46.161Z,18.15
2019-06-04T05:43:13.205Z,19.42
2019-06-04T05:45:40.252Z,18.85
2019-06-04T05:48:07.308Z,17.27
2019-06-04T05:50:34.352Z,17.83
2019-06-04T05:53:01.355Z,17.00
2019-06-04T05:55:28.970Z,17.48
2019-06-04T05:57:55.496Z,16.50
2019-06-04T06:00:23.678Z,16.62
2019-06-04T06:02:49.702Z,17.50
2019-06-04T06:05:23.963Z,16.98
2019-06-04T06:07:44.304Z,16.10
2019-06-04T06:10:12.895Z,16.10
2019-06-04T06:12:39.939Z,15.70
2019-06-04T06:15:10.018Z,15.43
2019-06-04T06:17:35.677Z,15.73
2019-06-04T06:20:02.740Z,15.00
2019-06-04T06:22:30.525Z,14.98
2019-06-04T06:24:57.229Z,15.93
2019-06-04T06:27:24.515Z,15.43
2019-06-04T06:29:51.332Z,15.50
2019-06-04T06:32:18.516Z,15.52
2019-06-04T06:34:45.531Z,14.75
2019-06-04T06:37:15.559Z,14.85
2019-06-04T06:39:42.614Z,16.15
2019-06-04T06:45:09.983Z,16.17
2019-06-04T06:47:37.307Z,16.08
2019-06-04T06:50:04.184Z,15.57
2019-06-04T06:52:31.322Z,15.95
2019-06-04T06:54:59.293Z,15.48
2019-06-04T06:57:26.344Z,16.00
2019-06-04T06:59:53.392Z,15.68
2019-06-04T07:02:24.660Z,14.55
2019-06-04T07:04:49.763Z,15.55
2019-06-04T07:07:14.739Z,15.50
2019-06-04T07:09:41.790Z,14.93
2019-06-04T07:12:08.780Z,14.10
2019-06-04T07:14:36.909Z,15.48
2019-06-04T07:17:03.036Z,14.87
2019-06-04T07:19:31.156Z,15.10
2019-06-04T07:21:57.238Z,15.57
2019-06-04T07:24:24.289Z,12.27
2019-06-04T07:26:51.333Z,13.43
2019-06-04T07:29:18.382Z,13.10
2019-06-04T07:31:45.571Z,14.75
2019-06-04T07:34:12.556Z,13.68
2019-06-04T07:36:41.117Z,13.68
2019-06-04T07:39:08.118Z,10.85
2019-06-04T07:41:35.672Z,10.68
2019-06-04T07:44:02.329Z,12.82
2019-06-04T07:46:31.259Z,14.10
2019-06-04T07:48:59.188Z,13.15
2019-06-04T07:51:27.350Z,12.55
2019-06-04T07:53:54.346Z,13.02
2019-06-04T07:56:40.023Z,13.35
2019-06-04T07:59:08.582Z,14.25
2019-06-04T08:01:57.196Z,12.43
2019-06-04T08:04:02.668Z,12.43
2019-06-04T08:06:43.489Z,13.07
2019-06-04T08:08:58.199Z,11.93
2019-06-04T08:11:25.242Z,11.55
2019-06-04T08:14:01.223Z,12.73
2019-06-04T08:16:28.262Z,11.57
2019-06-04T08:18:55.299Z,11.50
2019-06-04T08:21:41.554Z,12.13
2019-06-04T08:23:49.399Z,11.52
2019-06-04T08:26:17.372Z,11.32
2019-06-04T08:28:44.940Z,10.95
2019-06-04T08:31:13.252Z,10.73
2019-06-04T08:33:40.659Z,9.50
2019-06-04T08:36:07.306Z,10.82
2019-06-04T08:38:36.031Z,10.85
2019-06-04T08:41:01.500Z,9.98
2019-06-04T08:43:28.548Z,10.52
2019-06-04T08:45:55.604Z,10.40
2019-06-04T08:48:22.736Z,10.50
2019-06-04T08:50:49.805Z,11.25
2019-06-04T08:53:16.845Z,10.35
2019-06-04T08:55:45.850Z,9.85
2019-06-04T08:58:11.058Z,10.45
2019-06-04T09:00:39.322Z,8.88
2019-06-04T09:03:05.269Z,8.07
2019-06-04T09:05:32.294Z,7.85
2019-06-04T09:07:59.348Z,8.70
2019-06-04T09:10:32.335Z,9.70
2019-06-04T09:12:59.379Z,9.35
2019-06-04T09:15:27.144Z,9.10
2019-06-04T09:17:54.213Z,7.50
2019-06-04T09:20:23.090Z,8.30
2019-06-04T09:22:50.160Z,8.32
2019-06-04T09:25:17.182Z,8.07
2019-06-04T09:27:44.767Z,7.87
2019-06-04T09:30:11.328Z,8.90
2019-06-04T09:32:39.242Z,9.15
2019-06-04T09:35:05.492Z,9.20
2019-06-04T09:38:02.050Z,9.70
2019-06-04T09:40:18.320Z,8.85
2019-06-04T09:42:45.921Z,8.27
2019-06-04T09:45:12.514Z,9.73
2019-06-04T09:47:40.900Z,8.93
2019-06-04T09:50:06.611Z,10.82
2019-06-04T09:52:33.660Z,11.85
2019-06-04T09:55:00.717Z,11.20
2019-06-04T09:57:27.764Z,11.45
2019-06-04T09:59:54.806Z,11.88
2019-06-04T10:02:21.860Z,11.98
2019-06-04T10:04:51.326Z,11.02
2019-06-04T10:07:16.008Z,10.25
2019-06-04T10:09:44.200Z,11.25
2019-06-04T10:12:10.156Z,10.85
2019-06-04T10:14:37.200Z,10.55
2019-06-04T10:17:04.256Z,10.73
2019-06-04T10:19:31.302Z,10.63
2019-06-04T10:21:58.346Z,11.45
2019-06-04T10:24:25.393Z,10.98
2019-06-04T10:26:55.277Z,10.90
2019-06-04T10:29:19.548Z,11.27
2019-06-04T10:31:46.553Z,9.75
2019-06-04T10:34:13.598Z,8.07
2019-06-04T10:36:40.641Z,8.07
2019-06-04T10:39:07.687Z,7.35
2019-06-04T10:41:34.739Z,7.43
2019-06-04T10:44:03.701Z,6.60
2019-06-04T10:46:30.802Z,5.90
2019-06-04T10:48:57.824Z,6.60
2019-06-04T10:51:24.879Z,5.60
2019-06-04T10:53:53.743Z,5.93
2019-06-04T10:56:20.101Z,5.47
2019-06-04T10:58:48.059Z,5.60
2019-06-04T11:01:15.529Z,6.87
2019-06-04T11:03:42.583Z,7.25
2019-06-04T11:06:09.726Z,5.85
2019-06-04T11:08:48.341Z,5.45
2019-06-04T11:11:09.466Z,5.70
2019-06-04T11:13:38.345Z,6.55
2019-06-04T11:16:05.393Z,6.00
2019-06-04T11:18:33.677Z,5.95
2019-06-04T11:21:00.722Z,3.67
2019-06-04T11:23:27.775Z,5.00
2019-06-04T11:25:57.183Z,6.05
2019-06-04T11:28:22.803Z,6.37
2019-06-04T11:30:49.908Z,6.53
2019-06-04T11:33:17.347Z,6.07
2019-06-04T11:35:45.470Z,7.62
2019-06-04T11:38:13.801Z,7.15
2019-06-04T11:40:41.513Z,7.07
2019-06-04T11:43:11.674Z,6.75
2019-06-04T11:45:36.575Z,6.10
2019-06-04T11:48:04.910Z,5.97
2019-06-04T11:50:31.957Z,6.80
2019-06-04T11:52:59.733Z,5.80
2019-06-04T11:55:33.121Z,6.20
2019-06-04T11:58:02.529Z,5.93
2019-06-04T12:00:57.584Z,7.30
2019-06-04T12:03:20.490Z,5.90
2019-06-04T12:05:48.744Z,6.07
2019-06-04T12:08:16.528Z,7.00
2019-06-04T12:10:45.109Z,5.62
2019-06-04T12:13:16.702Z,5.78
2019-06-04T12:15:43.711Z,5.55
2019-06-04T12:18:11.691Z,6.15
2019-06-04T12:20:38.730Z,5.75
2019-06-04T12:25:33.546Z,5.47
2019-06-04T12:28:09.758Z,5.18
2019-06-04T12:33:11.904Z,5.03
2019-06-04T12:35:38.951Z,5.22
2019-06-04T12:38:14.427Z,5.50
2019-06-04T12:40:41.451Z,5.22
2019-06-04T12:43:10.123Z,4.87
2019-06-04T12:45:37.171Z,5.28
2019-06-04T12:48:06.127Z,5.30
2019-06-04T12:50:34.448Z,4.78
2019-06-04T12:53:03.497Z,4.72
2019-06-04T12:55:34.806Z,5.00
2019-06-04T12:58:03.884Z,5.50
2019-06-04T13:00:31.038Z,5.28
2019-06-04T13:05:31.070Z,4.95
2019-06-04T13:08:08.077Z,4.68
2019-06-04T13:10:33.344Z,4.60
2019-06-04T13:12:59.027Z,4.50
2019-06-04T13:15:51.130Z,4.97
2019-06-04T13:18:23.398Z,4.60
2019-06-04T13:20:47.924Z,4.80
2019-06-04T13:23:17.616Z,3.20
2019-06-04T13:25:48.092Z,4.65
2019-06-04T13:28:17.197Z,4.40
2019-06-04T13:30:48.113Z,4.65
2019-06-04T13:33:16.902Z,4.60
2019-06-04T13:35:47.293Z,4.37
2019-06-04T13:38:20.407Z,4.25
2019-06-04T13:40:50.036Z,3.97
2019-06-04T13:43:18.261Z,3.80
2019-06-04T13:45:49.134Z,4.53
2019-06-04T13:48:18.046Z,4.78
2019-06-04T13:50:46.694Z,4.60
2019-06-04T13:53:23.738Z,4.40
2019-06-04T13:55:43.093Z,4.40
2019-06-04T13:58:15.835Z,3.72
2019-06-04T14:00:42.484Z,4.05
2019-06-04T14:03:08.940Z,3.90
2019-06-04T14:05:36.602Z,3.55
2019-06-04T14:08:05.231Z,3.25
2019-06-04T14:10:49.204Z,4.00
2019-06-04T14:13:03.689Z,3.40
2019-06-04T14:15:30.520Z,2.90
2019-06-04T14:17:59.502Z,3.15
2019-06-04T14:20:32.131Z,3.37
2019-06-04T14:23:07.643Z,3.25
2019-06-04T14:25:25.875Z,3.35
2019-06-04T14:27:54.517Z,3.20
2019-06-04T14:30:24.710Z,3.50
2019-06-04T14:32:53.174Z,3.20
2019-06-04T14:38:26.380Z,3.72
2019-06-04T14:41:08.196Z,3.30
2019-06-04T14:43:22.423Z,3.33
2019-06-04T14:45:50.322Z,3.50
2019-06-04T14:48:20.384Z,3.50
2019-06-04T14:50:48.821Z,3.40
2019-06-04T14:53:18.333Z,3.67
2019-06-04T14:55:47.707Z,2.92
2019-06-04T14:58:16.045Z,3.35
2019-06-04T15:00:43.712Z,3.25
2019-06-04T15:03:11.687Z,3.60
2019-06-04T15:05:39.683Z,3.08
2019-06-04T15:08:08.771Z,3.47
2019-06-04T15:10:37.443Z,3.10
2019-06-04T15:13:05.327Z,3.22
2019-06-04T15:15:33.920Z,3.20
2019-06-04T15:18:01.973Z,3.20
2019-06-04T15:20:30.369Z,3.08
2019-06-04T15:22:58.309Z,3.00
2019-06-04T15:25:26.428Z,3.12
2019-06-04T15:27:57.877Z,3.03
2019-06-04T15:30:25.818Z,2.90
2019-06-04T15:32:57.167Z,3.05
2019-06-04T15:35:25.328Z,2.80
2019-06-04T15:37:53.794Z,3.10
2019-06-04T15:40:22.996Z,2.75
2019-06-04T15:42:50.091Z,2.90
2019-06-04T15:45:28.858Z,2.80
2019-06-04T15:47:49.742Z,2.92
2019-06-04T15:50:17.867Z,2.85
2019-06-04T15:52:51.705Z,2.87
2019-06-04T15:55:14.766Z,2.75
2019-06-04T15:57:42.076Z,2.87
2019-06-04T16:00:09.980Z,3.00
2019-06-04T16:02:37.843Z,2.90
2019-06-04T16:05:05.789Z,3.17
2019-06-04T16:07:33.791Z,2.80
2019-06-04T16:10:01.573Z,3.45
2019-06-04T16:12:29.425Z,2.85
2019-06-04T16:14:57.395Z,3.40
2019-06-04T16:17:30.831Z,3.37
2019-06-04T16:19:53.504Z,3.03
2019-06-04T16:22:21.874Z,3.20
2019-06-04T16:24:49.384Z,3.35
2019-06-04T16:27:20.497Z,3.05
2019-06-04T16:29:45.221Z,3.35
2019-06-04T16:32:13.072Z,3.70
2019-06-04T16:34:40.713Z,5.28
2019-06-04T16:37:10.352Z,4.97
2019-06-04T16:39:38.322Z,4.12
2019-06-04T16:42:21.763Z,3.53
2019-06-04T16:44:34.879Z,4.00
2019-06-04T16:47:03.576Z,3.40
2019-06-04T16:49:33.080Z,3.75
2019-06-04T16:52:04.088Z,3.58
2019-06-04T16:54:32.051Z,3.42
2019-06-04T16:56:59.940Z,3.50
2019-06-04T16:59:27.687Z,3.97
2019-06-04T17:01:58.045Z,3.85
2019-06-04T17:04:26.107Z,3.50
2019-06-04T17:06:53.976Z,3.22
2019-06-04T17:09:21.845Z,3.00
2019-06-04T17:11:49.932Z,3.33
2019-06-04T17:14:20.054Z,3.97
2019-06-04T17:16:47.589Z,3.92
2019-06-04T17:19:15.647Z,3.80
2019-06-04T17:21:43.550Z,3.75
2019-06-04T17:24:11.442Z,3.70
2019-06-04T17:26:39.354Z,4.45
2019-06-04T17:29:07.251Z,4.97
2019-06-04T17:31:35.331Z,5.22
2019-06-04T17:34:03.362Z,5.80
2019-06-04T17:36:31.272Z,6.32
2019-06-04T17:38:59.041Z,6.50
2019-06-04T17:41:27.423Z,7.35
2019-06-04T17:43:54.967Z,7.40
2019-06-04T17:46:23.681Z,7.60
2019-06-04T17:48:51.076Z,8.45
2019-06-04T17:51:18.946Z,7.95
2019-06-04T17:53:49.009Z,8.25
2019-06-04T17:56:16.972Z,8.57
2019-06-04T17:59:33.119Z,8.40
2019-06-04T18:02:01.142Z,8.57
2019-06-04T18:04:29.396Z,9.10
2019-06-04T18:07:00.225Z,9.18
2019-06-04T18:09:29.043Z,9.75
2019-06-04T18:11:56.308Z,9.20
2019-06-04T18:14:27.193Z,9.65
2019-06-04T18:16:54.568Z,9.77
2019-06-04T18:19:22.681Z,9.95
2019-06-04T18:21:51.400Z,8.93
2019-06-04T18:24:18.801Z,10.00
2019-06-04T18:26:46.691Z,9.95
2019-06-04T18:29:15.895Z,10.25
2019-06-04T18:31:43.676Z,9.93
2019-06-04T18:34:11.684Z,9.77
2019-06-04T18:36:39.979Z,10.40
2019-06-04T18:39:07.730Z,10.32
2019-06-04T18:41:36.694Z,10.27
2019-06-04T18:44:04.109Z,11.43
2019-06-04T18:46:32.777Z,11.00
2019-06-04T18:49:01.079Z,11.05
2019-06-04T18:51:29.089Z,11.93
2019-06-04T18:53:56.888Z,11.40
2019-06-04T18:56:24.864Z,11.23
2019-06-04T18:58:53.114Z,12.40
2019-06-04T19:01:21.131Z,11.80
2019-06-04T19:03:50.006Z,12.00
2019-06-04T19:06:17.962Z,12.35
2019-06-04T19:08:46.518Z,12.02
2019-06-04T19:11:14.926Z,12.43
2019-06-04T19:14:01.599Z,12.65
2019-06-04T19:16:10.972Z,13.35
2019-06-04T19:18:40.193Z,12.65
2019-06-04T19:21:52.399Z,13.10
2019-06-04T19:24:20.349Z,13.40
2019-06-04T19:26:48.113Z,13.38
2019-06-04T19:29:16.211Z,13.32
2019-06-04T19:31:45.659Z,14.10
2019-06-04T19:34:12.916Z,13.27
2019-06-04T19:37:05.712Z,13.27
2019-06-04T19:39:34.984Z,13.73
2019-06-04T19:42:01.940Z,13.20
2019-06-04T19:44:30.622Z,13.35
2019-06-04T19:46:58.526Z,13.38
2019-06-04T19:49:26.715Z,14.35
2019-06-04T19:51:54.600Z,14.05
2019-06-04T19:54:22.763Z,14.07
2019-06-04T19:56:50.804Z,14.05
2019-06-04T19:59:18.960Z,13.85
2019-06-04T20:01:47.107Z,14.10
2019-06-04T20:04:16.408Z,13.93
2019-06-04T20:06:44.410Z,13.15
2019-06-04T20:09:12.420Z,13.88
2019-06-04T20:11:40.753Z,13.65
2019-06-04T20:14:08.370Z,14.10
2019-06-04T20:16:37.198Z,14.38
2019-06-04T20:19:04.798Z,14.48
2019-06-04T20:21:32.773Z,14.87
2019-06-04T20:24:01.726Z,14.90
2019-06-04T20:26:35.515Z,15.45
2019-06-04T20:28:59.847Z,15.30
2019-06-04T20:31:25.989Z,16.90
2019-06-04T20:33:54.594Z,15.52
2019-06-04T20:36:24.110Z,16.80
2019-06-04T20:38:52.120Z,16.67
2019-06-04T20:41:20.142Z,16.55
2019-06-04T20:43:48.045Z,17.30
2019-06-04T20:46:16.029Z,17.58
2019-06-04T20:49:04.870Z,17.58
2019-06-04T20:51:14.570Z,17.90
2019-06-04T20:53:43.070Z,18.75
2019-06-04T20:56:12.108Z,18.12
2019-06-04T20:58:45.462Z,17.67
2019-06-04T21:01:13.536Z,17.77
2019-06-04T21:03:41.618Z,18.20
2019-06-04T21:06:15.773Z,17.73
2019-06-04T21:08:44.846Z,17.80
2019-06-04T21:11:11.807Z,18.10
2019-06-04T21:13:39.678Z,19.35
2019-06-04T21:16:07.794Z,17.37
2019-06-04T21:18:35.647Z,17.45
2019-06-04T21:21:03.963Z,18.35
2019-06-04T21:23:32.710Z,18.40
2019-06-04T21:26:00.995Z,17.85
2019-06-04T21:28:28.837Z,17.98
2019-06-04T21:30:56.832Z,19.15
2019-06-04T21:33:25.324Z,18.73
2019-06-04T21:35:54.131Z,19.25
2019-06-04T21:38:21.476Z,19.50
2019-06-04T21:40:50.477Z,18.77
2019-06-04T21:43:19.418Z,18.58
2019-06-04T21:45:48.431Z,18.33
2019-06-04T21:48:15.493Z,18.20
2019-06-04T21:50:43.280Z,18.02
2019-06-04T21:53:11.836Z,18.42
2019-06-04T21:55:39.588Z,17.85
2019-06-04T21:58:07.479Z,18.83
2019-06-04T22:00:35.586Z,17.95
2019-06-04T22:03:03.505Z,20.12
2019-06-04T22:05:35.159Z,21.50
2019-06-04T22:08:00.446Z,22.90
2019-06-04T22:10:27.510Z,22.15
2019-06-04T22:12:56.426Z,24.05
2019-06-04T22:15:23.467Z,24.35
2019-06-04T22:17:52.552Z,24.73
2019-06-04T22:20:19.301Z,25.12
2019-06-04T22:22:47.794Z,24.52
2019-06-04T22:25:15.733Z,25.62
2019-06-04T22:27:45.651Z,24.80
2019-06-04T22:30:13.820Z,25.23
2019-06-04T22:32:41.608Z,26.60
2019-06-04T22:35:09.800Z,25.20
2019-06-04T22:37:37.868Z,24.92
2019-06-04T22:40:07.031Z,26.02
2019-06-04T22:42:36.569Z,25.50
2019-06-04T22:45:05.931Z,26.00
2019-06-04T22:47:33.926Z,24.73
2019-06-04T22:50:02.030Z,24.73
2019-06-04T22:52:32.703Z,25.05
2019-06-04T22:55:01.054Z,25.50
2019-06-04T22:57:28.642Z,25.48
2019-06-04T22:59:57.808Z,26.10
2019-06-04T23:02:24.821Z,25.67
2019-06-04T23:04:54.575Z,25.92
2019-06-04T23:07:20.847Z,25.33
2019-06-04T23:09:48.751Z,26.73
2019-06-04T23:12:16.719Z,25.25
2019-06-04T23:14:44.572Z,24.98
2019-06-04T23:17:12.633Z,25.88
2019-06-04T23:19:40.523Z,25.08
2019-06-04T23:22:08.295Z,24.77
2019-06-04T23:24:36.076Z,24.87
2019-06-04T23:27:04.375Z,25.25
2019-06-04T23:29:32.325Z,24.48
2019-06-04T23:32:00.708Z,24.05
2019-06-04T23:34:28.133Z,25.65
2019-06-04T23:37:03.171Z,23.08
2019-06-04T23:39:30.457Z,22.25
2019-06-04T23:41:59.457Z,23.50
2019-06-04T23:44:26.767Z,22.60
2019-06-04T23:46:56.926Z,22.52
2019-06-04T23:49:24.537Z,21.65
2019-06-04T23:51:54.201Z,21.12
2019-06-04T23:54:22.212Z,21.08
2019-06-04T23:56:50.167Z,21.80
2019-06-04T23:59:18.384Z,19.10
